KIAD

Washington/Dulles

Airport
ICAO code
KIAD
Summary
ICAO Region
NAM
ICAO Territory
Location

Dulles, Virginia,

Elevation
312 ft
Coordinates
38° 57' 3" N , 77° 26' 51" W
KCC
Cfa
Airport LOS
Parallel Runway Operation
Metar
Observation
KIAD 100038Z 31007KT 10SM -TSRA BKN047CB BKN060 BKN140 BKN250 26/22 A2999 RMK AO2 PK WND 30036/2354 WSHFT 2345 LTG DSNT NE RAB14 OCNL LTGICCG OHD AND NE-SE TS OHD AND NE-SE MOV E P0006 T02610222
Station
Washington DC, Washington-Dulles International Airport
Date/Time
2022-08-10 00:38:00
Wind direction
310°
Wind speed
07 kts
Lowest cloud amount
broken clouds
Temperature
26.1°C
Dew point
22.2°C
Humidity
79%
Weather condition
light thunderstorm rain

Description

Washington Dulles International Airport is a public airport located 41.6 km west of the central business district of Washington, D.C., in Dulles, Virginia. It serves the greater Washington, D.C., metropolitan area.

Climatology

Humid “subtropical” climate (Köppen climate classification Cfa) - characterized by hot, humid summers and cool winters. Significant amounts of precipitation occur in all seasons in most areas. Winter rainfall (and sometimes snowfall) is associated with large storms that the westerlies steer from west to east. Most summer rainfall occurs during thunderstorms and occasional tropical storms (hurricanes).

Airport map

Aerial View

SKYbrary Partners:

Safety knowledge contributed by: